createdAt,value
2022-08-25T00:01:14.562Z,98473.13
2022-08-25T00:05:17.959Z,98471.53
2022-08-25T00:09:24.426Z,98469.28
2022-08-25T00:13:28.352Z,98466.25
2022-08-25T00:17:32.597Z,98467.53
2022-08-25T00:21:34.796Z,98479.38
2022-08-25T00:25:36.878Z,98469.38
2022-08-25T00:29:39.825Z,98471.91
2022-08-25T00:33:43.941Z,98464.47
2022-08-25T00:37:47.223Z,98465.25
2022-08-25T00:41:52.635Z,98468.13
2022-08-25T00:45:55.482Z,98472.56
2022-08-25T00:50:01.725Z,98471.75
2022-08-25T00:54:05.851Z,98474.16
2022-08-25T00:58:14.241Z,98472.44
2022-08-25T01:02:16.794Z,98468.28
2022-08-25T01:06:19.863Z,98470.00
2022-08-25T01:10:23.753Z,98468.22
2022-08-25T01:14:28.215Z,98457.00
2022-08-25T01:18:47.507Z,98462.59
2022-08-25T01:22:55.316Z,98465.91
2022-08-25T01:26:58.252Z,98469.47
2022-08-25T01:31:00.722Z,98473.63
2022-08-25T01:35:03.474Z,98480.41
2022-08-25T01:39:06.168Z,98478.53
2022-08-25T01:43:11.736Z,98468.28
2022-08-25T01:47:15.155Z,98464.28
2022-08-25T01:51:20.962Z,98462.22
2022-08-25T01:55:23.350Z,98458.84
2022-08-25T01:59:27.134Z,98453.44
2022-08-25T02:03:30.104Z,98463.22
2022-08-25T02:07:35.931Z,98452.56
2022-08-25T02:11:46.081Z,98464.56
2022-08-25T02:16:01.734Z,98449.31
2022-08-25T02:20:07.297Z,98454.75
2022-08-25T02:24:10.691Z,98462.91
2022-08-25T02:28:13.999Z,98451.66
2022-08-25T02:32:16.477Z,98453.78
2022-08-25T02:36:24.811Z,98454.38
2022-08-25T02:40:27.776Z,98458.72
2022-08-25T02:44:31.853Z,98452.31
2022-08-25T02:48:34.690Z,98467.22
2022-08-25T02:52:41.743Z,98461.06
2022-08-25T02:56:47.150Z,98458.09
2022-08-25T03:00:50.307Z,98451.44
2022-08-25T03:04:57.798Z,98446.75
2022-08-25T03:09:04.043Z,98447.81
2022-08-25T03:13:13.276Z,98451.16
2022-08-25T03:17:16.967Z,98450.81
2022-08-25T03:21:19.685Z,98441.75
2022-08-25T03:25:42.095Z,98450.84
2022-08-25T03:29:44.407Z,98447.56
2022-08-25T03:33:46.766Z,98445.72
2022-08-25T03:37:48.918Z,98441.03
2022-08-25T03:41:52.316Z,98437.91
2022-08-25T03:45:54.498Z,98450.31
2022-08-25T03:49:57.039Z,98444.28
2022-08-25T03:54:03.297Z,98443.47
2022-08-25T03:58:05.963Z,98447.63
2022-08-25T04:02:15.937Z,98449.66
2022-08-25T04:06:19.529Z,98453.72
2022-08-25T04:10:22.001Z,98451.22
2022-08-25T04:14:24.693Z,98449.66
2022-08-25T04:18:26.822Z,98451.09
2022-08-25T04:22:31.335Z,98448.16
2022-08-25T04:26:41.008Z,98459.94
2022-08-25T04:30:43.907Z,98459.06
2022-08-25T04:34:46.112Z,98456.91
2022-08-25T04:38:49.850Z,98453.78
2022-08-25T04:42:52.042Z,98452.50
2022-08-25T04:46:54.321Z,98449.41
2022-08-25T04:50:56.398Z,98449.16
2022-08-25T04:55:00.230Z,98449.03
2022-08-25T04:59:05.488Z,98451.63
2022-08-25T05:03:08.626Z,98449.88
2022-08-25T05:07:10.860Z,98447.81
2022-08-25T05:11:15.839Z,98444.25
2022-08-25T05:19:48.004Z,98438.72
2022-08-25T05:23:51.065Z,98435.81
2022-08-25T05:27:53.390Z,98433.56
2022-08-25T05:31:57.054Z,98438.13
2022-08-25T05:35:59.616Z,98439.09
2022-08-25T05:40:02.299Z,98455.00
2022-08-25T05:44:05.996Z,98450.81
2022-08-25T05:48:10.852Z,98449.00
2022-08-25T05:52:17.737Z,98444.09
2022-08-25T05:56:22.827Z,98433.97
2022-08-25T06:00:28.801Z,98440.63
2022-08-25T06:04:41.209Z,98432.66
2022-08-25T06:08:48.958Z,98418.94
2022-08-25T06:12:58.930Z,98434.31
2022-08-25T06:17:12.435Z,98428.00
2022-08-25T06:21:22.747Z,98427.88
2022-08-25T06:25:34.494Z,98426.94
2022-08-25T06:29:41.345Z,98426.44
2022-08-25T06:33:52.752Z,98418.69
2022-08-25T06:38:02.315Z,98417.63
2022-08-25T06:42:05.521Z,98410.63
2022-08-25T06:46:14.189Z,98407.38
2022-08-25T06:50:18.707Z,98407.47
2022-08-25T06:54:21.428Z,98393.16
2022-08-25T06:58:24.276Z,98402.16
2022-08-25T07:02:35.272Z,98394.88
2022-08-25T07:06:38.318Z,98391.16
2022-08-25T07:10:42.752Z,98395.78
2022-08-25T07:15:10.228Z,98401.34
2022-08-25T07:19:14.718Z,98395.84
2022-08-25T07:23:17.125Z,98388.72
2022-08-25T07:27:20.210Z,98389.47
2022-08-25T07:31:23.134Z,98390.00
2022-08-25T07:39:56.031Z,98380.19
2022-08-25T07:43:59.832Z,98383.06
2022-08-25T07:48:09.520Z,98386.13
2022-08-25T07:52:12.434Z,98380.59
2022-08-25T07:56:16.916Z,98373.78
2022-08-25T08:04:37.591Z,98371.16
2022-08-25T08:08:44.940Z,98375.53
2022-08-25T08:12:47.931Z,98382.75
2022-08-25T08:16:54.116Z,98359.47
2022-08-25T08:20:56.605Z,98365.34
2022-08-25T08:24:58.760Z,98356.06
2022-08-25T08:29:01.902Z,98359.72
2022-08-25T08:33:10.113Z,98365.75
2022-08-25T08:37:14.670Z,98369.78
2022-08-25T08:42:12.488Z,98362.16
2022-08-25T08:46:15.146Z,98364.25
2022-08-25T08:50:32.318Z,98363.41
2022-08-25T08:54:39.055Z,98359.16
2022-08-25T08:58:50.139Z,98355.38
2022-08-25T09:03:07.818Z,98353.66
2022-08-25T09:07:48.547Z,98345.47
2022-08-25T09:12:12.470Z,98343.69
2022-08-25T09:16:48.575Z,98346.91
2022-08-25T09:21:16.834Z,98338.47
2022-08-25T09:25:29.379Z,98334.69
2022-08-25T09:29:47.782Z,98326.50
2022-08-25T09:33:55.570Z,98334.84
2022-08-25T09:38:09.651Z,98331.34
2022-08-25T09:42:12.008Z,98329.38
2022-08-25T09:46:27.187Z,98321.69
2022-08-25T09:50:34.814Z,98320.97
2022-08-25T09:54:44.384Z,98317.50
2022-08-25T09:58:51.893Z,98322.97
2022-08-25T10:03:09.567Z,98328.06
2022-08-25T10:07:40.357Z,98317.56
2022-08-25T10:11:48.428Z,98320.31
2022-08-25T10:16:17.678Z,98315.66
2022-08-25T10:20:27.258Z,98314.97
2022-08-25T10:24:38.020Z,98306.38
2022-08-25T10:29:04.885Z,98303.31
2022-08-25T10:33:13.144Z,98307.66
2022-08-25T10:37:51.707Z,98309.22
2022-08-25T10:42:25.869Z,98303.38
2022-08-25T10:46:57.338Z,98298.28
2022-08-25T10:51:41.337Z,98306.91
2022-08-25T10:55:55.945Z,98312.00
2022-08-25T11:00:09.389Z,98305.00
2022-08-25T11:04:11.783Z,98286.25
2022-08-25T11:08:20.135Z,98299.56
2022-08-25T11:12:31.253Z,98278.03
2022-08-25T11:16:41.928Z,98278.41
2022-08-25T11:21:13.006Z,98282.34
2022-08-25T11:25:43.017Z,98279.59
2022-08-25T11:30:09.564Z,98280.75
2022-08-25T11:34:19.558Z,98266.56
2022-08-25T11:38:26.087Z,98272.81
2022-08-25T11:42:36.013Z,98268.44
2022-08-25T11:47:14.723Z,98272.34
2022-08-25T11:51:41.076Z,98267.94
2022-08-25T11:55:50.784Z,98265.53
2022-08-25T11:59:57.145Z,98265.03
2022-08-25T12:04:44.458Z,98264.75
2022-08-25T12:09:01.164Z,98265.19
2022-08-25T12:13:42.819Z,98271.47
2022-08-25T12:17:45.176Z,98271.38
2022-08-25T12:21:47.440Z,98267.09
2022-08-25T12:25:53.455Z,98263.91
2022-08-25T12:30:01.128Z,98244.41
2022-08-25T12:34:33.020Z,98250.34
2022-08-25T12:38:42.500Z,98250.19
2022-08-25T12:42:46.819Z,98239.63
2022-08-25T12:47:07.237Z,98237.66
2022-08-25T12:51:20.381Z,98239.50
2022-08-25T12:55:26.424Z,98243.03
2022-08-25T12:59:37.839Z,98234.44
2022-08-25T13:03:52.702Z,98226.09
2022-08-25T13:08:20.924Z,98217.53
2022-08-25T13:12:51.204Z,98211.69
2022-08-25T13:16:58.007Z,98209.28
2022-08-25T13:21:18.490Z,98215.13
2022-08-25T13:25:32.023Z,98216.75
2022-08-25T13:29:49.672Z,98224.66
2022-08-25T13:34:04.056Z,98210.84
2022-08-25T13:38:19.477Z,98215.22
2022-08-25T13:42:24.483Z,98199.84
2022-08-25T13:46:31.991Z,98190.38
2022-08-25T13:50:40.987Z,98196.38
2022-08-25T13:54:48.005Z,98183.59
2022-08-25T13:58:50.546Z,98181.78
2022-08-25T14:02:55.482Z,98188.81
2022-08-25T14:07:10.305Z,98191.81
2022-08-25T14:11:47.794Z,98180.34
2022-08-25T14:15:50.021Z,98184.59
2022-08-25T14:19:52.635Z,98184.94
2022-08-25T14:23:56.301Z,98181.25
2022-08-25T14:28:06.923Z,98176.69
2022-08-25T14:32:10.932Z,98175.53
2022-08-25T14:36:13.578Z,98175.28
2022-08-25T14:40:23.002Z,98173.94
2022-08-25T14:44:27.410Z,98179.66
2022-08-25T14:48:42.400Z,98173.41
2022-08-25T14:52:45.808Z,98171.75
2022-08-25T14:56:50.320Z,98175.91
2022-08-25T15:00:54.548Z,98170.81
2022-08-25T15:05:01.335Z,98175.03
2022-08-25T15:09:13.876Z,98177.28
2022-08-25T15:13:17.507Z,98171.81
2022-08-25T15:17:20.016Z,98171.34
2022-08-25T15:21:23.757Z,98161.56
2022-08-25T15:25:29.253Z,98155.00
2022-08-25T15:29:35.086Z,98144.47
2022-08-25T15:33:37.275Z,98144.66
2022-08-25T15:37:39.949Z,98138.66
2022-08-25T15:41:42.840Z,98140.88
2022-08-25T15:45:46.440Z,98141.38
2022-08-25T15:49:48.725Z,98133.06
2022-08-25T15:53:51.064Z,98143.09
2022-08-25T15:57:55.265Z,98142.38
2022-08-25T16:01:59.461Z,98140.97
2022-08-25T16:06:04.127Z,98130.09
2022-08-25T16:10:11.860Z,98135.91
2022-08-25T16:14:16.306Z,98131.28
2022-08-25T16:18:19.075Z,98139.44
2022-08-25T16:22:21.063Z,98122.22
2022-08-25T16:26:24.094Z,98120.72
2022-08-25T16:30:28.093Z,98121.56
2022-08-25T16:34:32.528Z,98124.41
2022-08-25T16:38:40.797Z,98127.09
2022-08-25T16:42:43.661Z,98118.00
2022-08-25T16:46:46.093Z,98115.38
2022-08-25T16:50:50.032Z,98109.75
2022-08-25T16:55:11.317Z,98108.94
2022-08-25T16:59:15.437Z,98095.88
2022-08-25T17:03:20.308Z,98094.97
2022-08-25T17:07:24.108Z,98088.53
2022-08-25T17:11:32.025Z,98087.84
2022-08-25T17:15:35.428Z,98091.72
2022-08-25T17:19:45.783Z,98087.16
2022-08-25T17:23:49.012Z,98085.56
2022-08-25T17:27:53.615Z,98088.41
2022-08-25T17:31:55.842Z,98081.41
2022-08-25T17:35:59.179Z,98085.75
2022-08-25T17:40:06.268Z,98092.22
2022-08-25T17:44:09.142Z,98092.66
2022-08-25T17:48:13.379Z,98080.22
2022-08-25T17:52:17.375Z,98097.84
2022-08-25T17:56:21.704Z,98103.63
2022-08-25T18:00:28.388Z,98117.84
2022-08-25T18:04:32.636Z,98116.31
2022-08-25T18:08:35.124Z,98107.59
2022-08-25T18:12:39.130Z,98116.81
2022-08-25T18:16:42.274Z,98128.34
2022-08-25T18:20:46.199Z,98127.84
2022-08-25T18:24:49.070Z,98134.34
2022-08-25T18:28:53.014Z,98136.09
2022-08-25T18:32:55.297Z,98146.06
2022-08-25T18:37:18.282Z,98161.16
2022-08-25T18:41:21.374Z,98166.88
2022-08-25T18:45:30.258Z,98162.81
2022-08-25T18:49:32.572Z,98179.78
2022-08-25T18:53:37.558Z,98170.31
2022-08-25T18:57:52.369Z,98178.41
2022-08-25T19:01:55.135Z,98180.66
2022-08-25T19:05:58.112Z,98172.84
2022-08-25T19:10:00.426Z,98185.66
2022-08-25T19:14:03.322Z,98183.56
2022-08-25T19:18:14.928Z,98180.81
2022-08-25T19:22:40.277Z,98189.34
2022-08-25T19:26:42.998Z,98194.75
2022-08-25T19:30:50.647Z,98195.06
2022-08-25T19:34:54.931Z,98202.72
2022-08-25T19:39:00.609Z,98197.13
2022-08-25T19:43:03.111Z,98203.66
2022-08-25T19:47:09.007Z,98210.00
2022-08-25T19:51:16.138Z,98207.56
2022-08-25T19:55:25.430Z,98207.84
2022-08-25T19:59:36.583Z,98207.75
2022-08-25T20:03:44.929Z,98198.19
2022-08-25T20:07:49.578Z,98211.22
2022-08-25T20:11:53.770Z,98197.56
2022-08-25T20:15:57.824Z,98208.97
2022-08-25T20:20:04.849Z,98215.03
2022-08-25T20:24:26.840Z,98213.53
2022-08-25T20:28:29.525Z,98212.09
2022-08-25T20:32:32.662Z,98212.69
2022-08-25T20:36:37.688Z,98225.47
2022-08-25T20:40:42.463Z,98231.59
2022-08-25T20:44:47.080Z,98233.13
2022-08-25T20:48:49.274Z,98238.00
2022-08-25T20:52:55.245Z,98239.13
2022-08-25T20:56:58.655Z,98242.97
2022-08-25T21:01:01.183Z,98232.16
2022-08-25T21:05:04.840Z,98247.22
2022-08-25T21:09:15.698Z,98243.22
2022-08-25T21:13:18.099Z,98259.69
2022-08-25T21:17:20.515Z,98251.91
2022-08-25T21:21:23.182Z,98263.91
2022-08-25T21:25:27.426Z,98264.63
2022-08-25T21:29:30.282Z,98267.41
2022-08-25T21:33:33.143Z,98270.38
2022-08-25T21:38:21.950Z,98270.47
2022-08-25T21:42:25.098Z,98275.81
2022-08-25T21:46:30.414Z,98271.16
2022-08-25T21:50:33.994Z,98276.69
2022-08-25T21:54:39.683Z,98272.03
2022-08-25T21:58:45.085Z,98268.25
2022-08-25T22:02:51.806Z,98274.13
2022-08-25T22:06:54.710Z,98274.38
2022-08-25T22:11:01.000Z,98276.22
2022-08-25T22:15:06.090Z,98278.75
2022-08-25T22:19:10.077Z,98271.69
2022-08-25T22:23:20.310Z,98262.44
2022-08-25T22:27:23.505Z,98266.06
2022-08-25T22:31:27.529Z,98274.47
2022-08-25T22:35:34.271Z,98272.13
2022-08-25T22:39:38.413Z,98264.84
2022-08-25T22:43:47.073Z,98275.94
2022-08-25T22:47:53.116Z,98265.53
2022-08-25T22:51:56.197Z,98269.38
2022-08-25T22:55:59.170Z,98261.78
2022-08-25T23:00:19.404Z,98262.19
2022-08-25T23:04:25.228Z,98265.34
2022-08-25T23:08:39.232Z,98263.22
2022-08-25T23:12:45.663Z,98252.16
2022-08-25T23:16:51.925Z,98256.91
2022-08-25T23:21:17.696Z,98266.63
2022-08-25T23:25:40.719Z,98255.81
2022-08-25T23:29:46.387Z,98249.00
2022-08-25T23:33:51.720Z,98242.91
2022-08-25T23:37:53.993Z,98245.66
2022-08-25T23:41:56.838Z,98241.72
2022-08-25T23:45:59.674Z,98236.09
2022-08-25T23:50:04.753Z,98234.50
2022-08-25T23:54:10.686Z,98236.94
2022-08-25T23:58:13.026Z,98235.75
